createdAt,value
2023-05-11T00:01:39.470Z,0.70
2023-05-11T00:04:07.313Z,1.00
2023-05-11T00:06:35.443Z,0.80
2023-05-11T00:09:03.233Z,0.67
2023-05-11T00:11:32.546Z,0.77
2023-05-11T00:14:00.304Z,1.00
2023-05-11T00:16:28.220Z,0.70
2023-05-11T00:18:56.140Z,0.90
2023-05-11T00:21:24.075Z,1.10
2023-05-11T00:23:51.883Z,0.77
2023-05-11T00:26:19.651Z,0.80
2023-05-11T00:28:48.756Z,0.77
2023-05-11T00:31:16.709Z,0.77
2023-05-11T00:33:44.505Z,0.70
2023-05-11T00:36:12.295Z,0.83
2023-05-11T00:38:41.040Z,0.60
2023-05-11T00:41:09.545Z,0.80
2023-05-11T00:43:37.334Z,0.80
2023-05-11T00:46:06.762Z,0.60
2023-05-11T00:48:34.876Z,1.10
2023-05-11T00:51:04.549Z,0.70
2023-05-11T00:53:32.443Z,0.93
2023-05-11T00:56:00.349Z,0.77
2023-05-11T00:58:28.315Z,0.90
2023-05-11T01:00:56.166Z,1.10
2023-05-11T01:03:26.461Z,0.70
2023-05-11T01:06:02.147Z,0.70
2023-05-11T01:08:37.787Z,1.00
2023-05-11T01:11:17.982Z,1.03
2023-05-11T01:13:52.304Z,0.70
2023-05-11T01:16:21.966Z,0.70
2023-05-11T01:18:55.785Z,0.83
2023-05-11T01:21:23.863Z,0.63
2023-05-11T01:24:13.251Z,0.60
2023-05-11T01:26:55.280Z,0.70
2023-05-11T01:29:45.937Z,0.90
2023-05-11T01:32:20.578Z,0.63
2023-05-11T01:34:49.357Z,1.00
2023-05-11T01:37:22.443Z,0.80
2023-05-11T01:39:53.937Z,0.80
2023-05-11T01:42:32.983Z,1.00
2023-05-11T01:45:02.667Z,1.00
2023-05-11T01:47:33.032Z,1.10
2023-05-11T01:50:03.700Z,0.97
2023-05-11T01:52:33.444Z,0.67
2023-05-11T01:55:03.517Z,0.80
2023-05-11T01:57:32.610Z,0.70
2023-05-11T02:00:01.540Z,0.90
2023-05-11T02:02:32.377Z,1.00
2023-05-11T02:05:01.756Z,0.70
2023-05-11T02:07:30.871Z,0.60
2023-05-11T02:10:00.479Z,0.60
2023-05-11T02:12:28.601Z,0.67
2023-05-11T02:14:58.055Z,0.87
2023-05-11T02:17:27.172Z,0.83
2023-05-11T02:19:57.219Z,0.60
2023-05-11T02:22:26.394Z,0.77
2023-05-11T02:24:54.202Z,0.90
2023-05-11T02:27:22.062Z,0.70
2023-05-11T02:29:49.813Z,0.63
2023-05-11T02:32:20.201Z,0.80
2023-05-11T02:34:55.405Z,0.60
2023-05-11T02:37:27.006Z,0.90
2023-05-11T02:39:58.864Z,0.70
2023-05-11T02:42:28.871Z,0.60
2023-05-11T02:45:02.165Z,0.90
2023-05-11T02:47:33.376Z,0.57
2023-05-11T02:50:04.741Z,0.80
2023-05-11T02:52:35.606Z,0.73
2023-05-11T02:55:04.842Z,0.70
2023-05-11T02:57:32.842Z,0.83
2023-05-11T03:00:01.935Z,0.70
2023-05-11T03:02:29.835Z,1.10
2023-05-11T03:04:57.658Z,0.87
2023-05-11T03:07:25.489Z,0.80
2023-05-11T03:09:54.722Z,0.63
2023-05-11T03:12:22.873Z,0.80
2023-05-11T03:14:51.557Z,0.70
2023-05-11T03:17:21.954Z,0.60
2023-05-11T03:19:50.751Z,0.87
2023-05-11T03:22:19.324Z,0.60
2023-05-11T03:24:47.175Z,0.73
2023-05-11T03:27:17.445Z,0.60
2023-05-11T03:29:45.727Z,0.80
2023-05-11T03:32:13.976Z,0.60
2023-05-11T03:34:41.891Z,0.63
2023-05-11T03:37:13.133Z,0.60
2023-05-11T03:39:44.805Z,0.60
2023-05-11T03:42:14.967Z,0.60
2023-05-11T03:44:47.052Z,0.80
2023-05-11T03:47:16.685Z,0.67
2023-05-11T03:49:46.119Z,0.60
2023-05-11T03:52:14.277Z,0.67
2023-05-11T03:54:43.568Z,0.70
2023-05-11T03:57:11.429Z,0.60
2023-05-11T03:59:40.835Z,0.60
2023-05-11T04:02:10.385Z,0.70
2023-05-11T04:04:38.376Z,0.57
2023-05-11T04:07:06.228Z,0.77
2023-05-11T04:09:35.120Z,0.70
2023-05-11T04:12:02.924Z,0.60
2023-05-11T04:14:30.689Z,0.60
2023-05-11T04:16:58.449Z,0.60
2023-05-11T04:19:27.576Z,0.50
2023-05-11T04:21:55.366Z,0.53
2023-05-11T04:24:23.155Z,0.60
2023-05-11T04:26:56.129Z,0.50
2023-05-11T04:29:23.919Z,0.60
2023-05-11T04:31:51.746Z,0.63
2023-05-11T04:34:19.483Z,0.60
2023-05-11T04:36:49.910Z,0.70
2023-05-11T04:39:18.063Z,0.67
2023-05-11T04:41:46.113Z,0.60
2023-05-11T04:44:13.890Z,0.67
2023-05-11T04:46:41.706Z,0.70
2023-05-11T04:49:09.498Z,0.60
2023-05-11T04:51:37.292Z,0.80
2023-05-11T04:54:06.524Z,0.60
2023-05-11T04:56:36.441Z,0.50
2023-05-11T04:59:05.425Z,0.57
2023-05-11T05:01:33.435Z,0.60
2023-05-11T05:04:01.258Z,0.80
2023-05-11T05:06:29.111Z,0.63
2023-05-11T05:08:56.880Z,0.70
2023-05-11T05:11:25.944Z,0.60
2023-05-11T05:13:53.679Z,0.50
2023-05-11T05:16:21.493Z,0.60
2023-05-11T05:18:49.325Z,1.20
2023-05-11T05:21:17.080Z,0.80
2023-05-11T05:23:44.837Z,0.60
2023-05-11T05:26:12.808Z,0.60
2023-05-11T05:28:41.896Z,0.83
2023-05-11T05:31:09.724Z,1.00
2023-05-11T05:33:37.494Z,1.30
2023-05-11T05:36:05.740Z,0.70
2023-05-11T05:38:33.537Z,0.60
2023-05-11T05:41:02.236Z,0.70
2023-05-11T05:43:30.035Z,0.80
2023-05-11T05:45:59.134Z,0.63
2023-05-11T05:48:26.901Z,0.50
2023-05-11T05:50:54.717Z,0.87
2023-05-11T05:53:22.487Z,0.70
2023-05-11T05:55:50.233Z,0.63
2023-05-11T05:58:18.004Z,0.50
2023-05-11T06:00:45.792Z,0.60
2023-05-11T06:03:14.949Z,0.60
2023-05-11T06:05:42.767Z,0.90
2023-05-11T06:08:11.628Z,0.70
2023-05-11T06:10:39.646Z,0.67
2023-05-11T06:13:09.149Z,0.80
2023-05-11T06:15:36.943Z,0.80
2023-05-11T06:18:04.952Z,0.60
2023-05-11T06:20:34.099Z,0.60
2023-05-11T06:23:01.810Z,0.60
2023-05-11T06:25:29.580Z,0.60
2023-05-11T06:27:57.346Z,0.60
2023-05-11T06:30:25.124Z,0.53
2023-05-11T06:32:52.947Z,0.60
2023-05-11T06:35:21.429Z,0.60
2023-05-11T06:37:50.622Z,0.80
2023-05-11T06:40:18.813Z,0.70
2023-05-11T06:42:46.825Z,0.80
2023-05-11T06:45:14.686Z,0.80
2023-05-11T06:47:42.734Z,0.60
2023-05-11T06:50:11.016Z,0.83
2023-05-11T06:52:38.953Z,0.80
2023-05-11T06:55:09.376Z,0.83
2023-05-11T06:57:37.178Z,0.90
2023-05-11T07:00:05.824Z,1.00
2023-05-11T07:02:33.675Z,0.70
2023-05-11T07:05:01.578Z,0.80
2023-05-11T07:07:29.536Z,0.60
2023-05-11T07:09:57.559Z,0.60
2023-05-11T07:12:26.688Z,0.70
2023-05-11T07:14:54.451Z,0.60
2023-05-11T07:17:22.387Z,0.40
2023-05-11T07:19:52.157Z,0.60
2023-05-11T07:22:19.930Z,0.60
2023-05-11T07:24:47.716Z,0.90
2023-05-11T07:27:15.812Z,0.70
2023-05-11T07:29:44.886Z,0.70
2023-05-11T07:32:13.022Z,0.60
2023-05-11T07:34:41.557Z,0.80
2023-05-11T07:37:09.363Z,0.70
2023-05-11T07:39:37.291Z,0.70
2023-05-11T07:42:05.137Z,0.70
2023-05-11T07:44:32.894Z,0.60
2023-05-11T07:47:02.572Z,0.57
2023-05-11T07:49:40.002Z,0.83
2023-05-11T07:52:11.543Z,0.80
2023-05-11T07:54:40.038Z,0.63
2023-05-11T07:57:08.308Z,0.60
2023-05-11T07:59:36.500Z,0.60
2023-05-11T08:02:07.507Z,0.70
2023-05-11T08:04:36.088Z,0.87
2023-05-11T08:07:04.066Z,0.80
2023-05-11T08:09:32.166Z,1.10
2023-05-11T08:12:01.589Z,0.73
2023-05-11T08:14:29.449Z,0.70
2023-05-11T08:16:57.285Z,0.87
2023-05-11T08:19:26.668Z,0.70
2023-05-11T08:21:54.484Z,1.10
2023-05-11T08:24:22.196Z,0.67
2023-05-11T08:26:49.984Z,0.70
2023-05-11T08:29:17.768Z,0.50
2023-05-11T08:31:45.682Z,0.70
2023-05-11T08:34:18.976Z,0.63
2023-05-11T08:36:48.749Z,0.87
2023-05-11T08:39:24.910Z,0.70
2023-05-11T08:42:06.842Z,0.67
2023-05-11T08:44:37.719Z,0.63
2023-05-11T08:47:21.933Z,0.80
2023-05-11T08:49:52.221Z,1.60
2023-05-11T08:52:21.990Z,0.97
2023-05-11T08:54:49.820Z,0.80
2023-05-11T08:57:18.482Z,0.60
2023-05-11T08:59:46.850Z,0.60
2023-05-11T09:02:17.760Z,0.63
2023-05-11T09:04:48.572Z,0.63
2023-05-11T09:07:18.156Z,1.00
2023-05-11T09:09:48.428Z,0.50
2023-05-11T09:12:18.021Z,0.60
2023-05-11T09:14:47.019Z,0.70
2023-05-11T09:17:15.039Z,0.63
2023-05-11T09:19:58.845Z,0.70
2023-05-11T09:22:28.498Z,0.50
2023-05-11T09:25:00.222Z,0.70
2023-05-11T09:27:28.012Z,0.90
2023-05-11T09:29:56.049Z,0.70
2023-05-11T09:32:23.878Z,0.70
2023-05-11T09:34:51.825Z,1.13
2023-05-11T09:37:20.298Z,0.50
2023-05-11T09:40:25.069Z,0.70
2023-05-11T09:42:43.993Z,0.70
2023-05-11T09:45:12.018Z,0.70
2023-05-11T09:47:41.114Z,1.03
2023-05-11T09:50:18.737Z,0.70
2023-05-11T09:52:53.716Z,0.80
2023-05-11T09:55:22.001Z,0.60
2023-05-11T09:57:56.182Z,0.70
2023-05-11T10:00:25.896Z,0.60
2023-05-11T10:03:08.521Z,0.70
2023-05-11T10:05:37.568Z,0.73
2023-05-11T10:08:06.935Z,0.50
2023-05-11T10:10:35.707Z,0.70
2023-05-11T10:13:04.946Z,0.67
2023-05-11T10:15:36.515Z,0.70
2023-05-11T10:18:04.690Z,0.70
2023-05-11T10:20:33.746Z,1.00
2023-05-11T10:23:01.770Z,0.80
2023-05-11T10:25:29.663Z,0.80
2023-05-11T10:27:58.541Z,0.93
2023-05-11T10:30:28.272Z,0.90
2023-05-11T10:32:56.720Z,0.70
2023-05-11T10:35:24.624Z,0.80
2023-05-11T10:37:52.506Z,0.70
2023-05-11T10:40:20.789Z,0.67
2023-05-11T10:43:24.781Z,0.57
2023-05-11T10:46:08.204Z,0.70
2023-05-11T10:48:53.811Z,0.60
2023-05-11T10:51:51.472Z,0.60
2023-05-11T10:54:32.834Z,1.10
2023-05-11T10:57:25.695Z,0.70
2023-05-11T11:00:30.914Z,0.80
2023-05-11T11:03:10.674Z,1.37
2023-05-11T11:05:39.120Z,1.00
2023-05-11T11:08:09.165Z,0.60
2023-05-11T11:10:38.360Z,0.77
2023-05-11T11:13:08.315Z,0.73
2023-05-11T11:16:10.934Z,0.60
2023-05-11T11:18:40.552Z,1.03
2023-05-11T11:21:08.878Z,0.60
2023-05-11T11:23:49.777Z,1.20
2023-05-11T11:26:21.028Z,0.60
2023-05-11T11:29:11.556Z,0.70
2023-05-11T11:31:39.903Z,0.50
2023-05-11T11:34:36.189Z,0.70
2023-05-11T11:37:04.830Z,0.60
2023-05-11T11:39:49.976Z,0.70
2023-05-11T11:42:19.666Z,0.80
2023-05-11T11:44:48.356Z,0.60
2023-05-11T11:47:17.471Z,0.80
2023-05-11T11:49:48.092Z,0.60
2023-05-11T11:52:34.239Z,0.60
2023-05-11T11:55:04.891Z,0.60
2023-05-11T11:57:49.371Z,0.60
2023-05-11T12:00:22.560Z,0.60
2023-05-11T12:02:50.742Z,0.70
2023-05-11T12:05:22.322Z,0.70
2023-05-11T12:07:52.502Z,0.60
2023-05-11T12:10:22.525Z,0.67
2023-05-11T12:12:51.657Z,1.00
2023-05-11T12:15:25.959Z,0.80
2023-05-11T12:17:53.965Z,0.70
2023-05-11T12:20:23.822Z,0.60
2023-05-11T12:22:52.105Z,0.73
2023-05-11T12:25:21.537Z,0.80
2023-05-11T12:27:51.522Z,0.63
2023-05-11T12:30:23.687Z,0.83
2023-05-11T12:35:28.423Z,0.80
2023-05-11T12:37:57.549Z,0.70
2023-05-11T12:40:25.588Z,0.60
2023-05-11T12:42:54.054Z,0.70
2023-05-11T12:45:23.448Z,1.00
2023-05-11T12:47:53.226Z,0.60
2023-05-11T12:50:21.803Z,0.73
2023-05-11T12:52:51.103Z,0.70
2023-05-11T12:55:28.759Z,0.70
2023-05-11T12:58:08.413Z,0.80
2023-05-11T13:00:36.423Z,0.63
2023-05-11T13:03:04.661Z,0.60
2023-05-11T13:05:32.665Z,0.83
2023-05-11T13:08:03.282Z,0.80
2023-05-11T13:10:31.526Z,0.70
2023-05-11T13:12:59.388Z,0.90
2023-05-11T13:15:28.410Z,0.80
2023-05-11T13:18:01.256Z,0.60
2023-05-11T13:20:31.168Z,0.70
2023-05-11T13:23:08.612Z,0.73
2023-05-11T13:25:51.743Z,0.70
2023-05-11T13:28:21.167Z,0.80
2023-05-11T13:30:51.092Z,0.87
2023-05-11T13:33:19.278Z,0.60
2023-05-11T13:35:47.231Z,0.60
2023-05-11T13:38:16.294Z,0.80
2023-05-11T13:40:44.056Z,0.77
2023-05-11T13:43:11.833Z,0.50
2023-05-11T13:45:41.054Z,0.67
2023-05-11T13:48:08.962Z,0.87
2023-05-11T13:50:36.746Z,0.90
2023-05-11T13:53:04.572Z,0.60
2023-05-11T13:55:33.735Z,0.60
2023-05-11T13:58:01.592Z,0.60
2023-05-11T14:00:29.407Z,0.63
2023-05-11T14:02:58.093Z,0.90
2023-05-11T14:05:26.455Z,0.70
2023-05-11T14:07:54.231Z,0.70
2023-05-11T14:10:22.116Z,0.80
2023-05-11T14:12:51.284Z,0.70
2023-05-11T14:15:19.369Z,0.70
2023-05-11T14:17:47.548Z,0.70
2023-05-11T14:20:16.271Z,0.70
2023-05-11T14:22:44.037Z,0.80
2023-05-11T14:25:11.953Z,0.70
2023-05-11T14:27:40.089Z,0.80
2023-05-11T14:30:10.680Z,0.80
2023-05-11T14:32:38.563Z,0.70
2023-05-11T14:35:06.898Z,0.70
2023-05-11T14:37:35.196Z,0.70
2023-05-11T14:40:03.185Z,0.87
2023-05-11T14:42:31.028Z,1.00
2023-05-11T14:44:58.818Z,0.80
2023-05-11T14:47:28.109Z,0.73
2023-05-11T14:49:55.881Z,0.70
2023-05-11T14:52:23.684Z,0.60
2023-05-11T14:54:51.427Z,0.70
2023-05-11T14:57:19.289Z,0.60
2023-05-11T14:59:58.456Z,0.70
2023-05-11T15:02:29.766Z,1.07
2023-05-11T15:04:57.645Z,1.20
2023-05-11T15:07:25.641Z,1.10
2023-05-11T15:09:53.838Z,1.27
2023-05-11T15:12:21.700Z,1.00
2023-05-11T15:14:49.461Z,1.47
2023-05-11T15:17:17.357Z,1.23
2023-05-11T15:19:46.705Z,1.33
2023-05-11T15:22:14.522Z,0.90
2023-05-11T15:24:42.289Z,0.60
2023-05-11T15:27:10.281Z,0.63
2023-05-11T15:29:38.133Z,0.70
2023-05-11T15:32:06.723Z,0.90
2023-05-11T15:34:37.543Z,0.77
2023-05-11T15:37:13.626Z,0.77
2023-05-11T15:39:41.468Z,0.83
2023-05-11T15:42:09.318Z,0.80
2023-05-11T15:44:37.100Z,0.80
2023-05-11T15:47:05.989Z,0.77
2023-05-11T15:49:33.999Z,1.00
2023-05-11T15:52:02.013Z,0.90
2023-05-11T15:54:31.106Z,1.00
2023-05-11T15:56:58.860Z,1.10
2023-05-11T15:59:26.787Z,0.87
2023-05-11T16:01:54.811Z,0.90
2023-05-11T16:04:22.622Z,0.67
2023-05-11T16:06:50.407Z,1.00
2023-05-11T16:09:18.244Z,1.10
2023-05-11T16:11:47.389Z,1.00
2023-05-11T16:14:15.413Z,0.80
2023-05-11T16:16:43.699Z,0.60
2023-05-11T16:19:11.653Z,0.60
2023-05-11T16:21:39.634Z,0.60
2023-05-11T16:24:08.084Z,0.70
2023-05-11T16:26:35.866Z,0.87
2023-05-11T16:29:05.798Z,1.03
2023-05-11T16:31:33.823Z,1.07
2023-05-11T16:34:01.618Z,0.90
2023-05-11T16:36:30.129Z,0.93
2023-05-11T16:38:57.898Z,0.90
2023-05-11T16:41:27.967Z,1.23
2023-05-11T16:43:55.951Z,1.37
2023-05-11T16:46:25.114Z,0.95
2023-05-11T16:48:52.979Z,1.27
2023-05-11T16:51:20.781Z,1.10
2023-05-11T16:53:48.556Z,1.00
2023-05-11T16:56:16.726Z,0.83
2023-05-11T16:58:44.465Z,1.10
2023-05-11T17:01:12.463Z,0.90
2023-05-11T17:03:41.966Z,1.27
2023-05-11T17:06:13.433Z,1.00
2023-05-11T17:08:41.726Z,0.83
2023-05-11T17:11:09.592Z,1.30
2023-05-11T17:13:37.392Z,0.87
2023-05-11T17:16:05.728Z,1.10
2023-05-11T17:18:33.565Z,1.00
2023-05-11T17:21:02.657Z,0.90
2023-05-11T17:23:30.452Z,1.00
2023-05-11T17:25:58.543Z,1.33
2023-05-11T17:28:26.915Z,1.27
2023-05-11T17:30:54.729Z,0.90
2023-05-11T17:33:23.356Z,1.53
2023-05-11T17:35:51.374Z,1.10
2023-05-11T17:38:20.611Z,0.90
2023-05-11T17:40:48.652Z,1.10
2023-05-11T17:43:16.662Z,0.90
2023-05-11T17:45:44.407Z,0.70
2023-05-11T17:48:12.708Z,0.83
2023-05-11T17:50:40.611Z,0.83
2023-05-11T17:53:08.346Z,0.80
2023-05-11T17:55:41.443Z,0.77
2023-05-11T17:58:09.606Z,0.93
2023-05-11T18:00:38.010Z,1.00
2023-05-11T18:03:06.312Z,0.80
2023-05-11T18:05:47.606Z,0.80
2023-05-11T18:08:16.100Z,1.57
2023-05-11T18:10:45.570Z,0.90
2023-05-11T18:13:14.261Z,0.80
2023-05-11T18:15:43.798Z,0.90
2023-05-11T18:18:11.625Z,0.80
2023-05-11T18:20:39.617Z,1.20
2023-05-11T18:23:07.405Z,1.33
2023-05-11T18:25:35.179Z,1.17
2023-05-11T18:28:04.498Z,1.00
2023-05-11T18:30:33.702Z,1.00
2023-05-11T18:33:01.715Z,1.70
2023-05-11T18:35:29.584Z,1.17
2023-05-11T18:37:59.371Z,2.47
2023-05-11T18:40:27.216Z,1.60
2023-05-11T18:42:56.004Z,1.50
2023-05-11T18:45:25.144Z,1.47
2023-05-11T18:47:52.995Z,1.30
2023-05-11T18:50:21.697Z,1.30
2023-05-11T18:52:49.635Z,1.50
2023-05-11T18:55:18.300Z,1.57
2023-05-11T18:57:46.078Z,1.97
2023-05-11T19:00:14.528Z,1.10
2023-05-11T19:02:43.793Z,1.37
2023-05-11T19:05:11.876Z,1.30
2023-05-11T19:07:40.733Z,1.20
2023-05-11T19:10:09.745Z,1.30
2023-05-11T19:12:38.125Z,1.33
2023-05-11T19:15:08.261Z,1.30
2023-05-11T19:17:36.025Z,1.30
2023-05-11T19:20:05.910Z,1.67
2023-05-11T19:22:33.705Z,1.63
2023-05-11T19:25:01.696Z,1.60
2023-05-11T19:27:29.816Z,1.60
2023-05-11T19:29:57.581Z,2.23
2023-05-11T19:32:25.532Z,2.60
2023-05-11T19:34:53.350Z,2.50
2023-05-11T19:37:22.460Z,2.30
2023-05-11T19:39:50.948Z,3.73
2023-05-11T19:42:25.834Z,2.67
2023-05-11T19:44:59.825Z,4.47
2023-05-11T19:47:28.412Z,4.20
2023-05-11T19:49:56.217Z,6.07
2023-05-11T19:52:25.358Z,5.63
2023-05-11T19:54:53.135Z,3.30
2023-05-11T19:57:21.542Z,3.10
2023-05-11T19:59:49.303Z,2.80
2023-05-11T20:02:17.353Z,3.20
2023-05-11T20:04:46.409Z,3.13
2023-05-11T20:07:14.181Z,2.73
2023-05-11T20:09:43.279Z,2.80
2023-05-11T20:12:11.068Z,2.93
2023-05-11T20:14:40.832Z,2.77
2023-05-11T20:17:09.288Z,2.53
2023-05-11T20:19:37.318Z,2.40
2023-05-11T20:22:05.821Z,2.50
2023-05-11T20:24:33.578Z,2.40
2023-05-11T20:27:08.925Z,2.47
2023-05-11T20:29:38.772Z,2.37
2023-05-11T20:32:07.480Z,2.57
2023-05-11T20:34:35.579Z,2.30
2023-05-11T20:37:03.597Z,2.77
2023-05-11T20:39:31.334Z,2.70
2023-05-11T20:41:59.881Z,2.17
2023-05-11T20:44:29.957Z,2.80
2023-05-11T20:46:57.751Z,2.87
2023-05-11T20:49:37.566Z,2.80
2023-05-11T20:52:06.944Z,2.37
2023-05-11T20:54:35.629Z,2.40
2023-05-11T20:57:04.518Z,2.57
2023-05-11T21:02:04.783Z,2.10
2023-05-11T21:04:33.647Z,2.10
2023-05-11T21:07:01.442Z,2.00
2023-05-11T21:09:29.202Z,2.17
2023-05-11T21:11:56.965Z,2.10
2023-05-11T21:14:24.700Z,2.40
2023-05-11T21:16:53.863Z,2.50
2023-05-11T21:19:21.749Z,2.20
2023-05-11T21:21:49.786Z,2.10
2023-05-11T21:24:17.630Z,3.13
2023-05-11T21:26:47.879Z,2.40
2023-05-11T21:29:16.119Z,2.10
2023-05-11T21:31:43.913Z,2.80
2023-05-11T21:34:13.018Z,2.20
2023-05-11T21:36:41.333Z,2.07
2023-05-11T21:39:09.224Z,2.30
2023-05-11T21:41:37.002Z,2.47
2023-05-11T21:44:04.879Z,1.93
2023-05-11T21:46:32.812Z,2.20
2023-05-11T21:49:00.635Z,2.67
2023-05-11T21:51:29.708Z,1.93
2023-05-11T21:53:57.515Z,2.20
2023-05-11T21:56:25.482Z,2.07
2023-05-11T21:58:53.256Z,2.13
2023-05-11T22:01:21.050Z,2.20
2023-05-11T22:03:48.937Z,2.30
2023-05-11T22:06:16.922Z,2.40
2023-05-11T22:08:46.258Z,2.30
2023-05-11T22:11:14.006Z,2.70
2023-05-11T22:13:42.700Z,2.80
2023-05-11T22:16:10.521Z,2.80
2023-05-11T22:18:38.452Z,2.50
2023-05-11T22:21:06.384Z,2.57
2023-05-11T22:23:35.000Z,2.60
2023-05-11T22:26:04.699Z,2.43
2023-05-11T22:28:32.768Z,2.40
2023-05-11T22:31:00.894Z,3.07
2023-05-11T22:33:28.700Z,2.70
2023-05-11T22:35:56.527Z,2.67
2023-05-11T22:38:24.450Z,2.50
2023-05-11T22:40:52.252Z,3.20
2023-05-11T22:43:21.381Z,2.53
2023-05-11T22:45:49.335Z,2.77
2023-05-11T22:48:17.145Z,2.50
2023-05-11T22:50:47.337Z,2.57
2023-05-11T22:53:15.510Z,2.27
2023-05-11T22:55:43.523Z,2.57
2023-05-11T23:00:54.445Z,2.47
2023-05-11T23:03:22.423Z,2.60
2023-05-11T23:05:50.315Z,2.97
2023-05-11T23:08:18.114Z,3.20
2023-05-11T23:10:45.982Z,2.90
2023-05-11T23:13:13.745Z,3.13
2023-05-11T23:15:41.681Z,3.03
2023-05-11T23:18:10.893Z,3.03
2023-05-11T23:20:38.935Z,2.90
2023-05-11T23:23:06.925Z,2.33
2023-05-11T23:25:34.768Z,2.90
2023-05-11T23:28:02.647Z,3.07
2023-05-11T23:30:30.501Z,3.00
2023-05-11T23:32:58.255Z,3.00
2023-05-11T23:35:27.385Z,3.70
2023-05-11T23:37:55.138Z,3.10
2023-05-11T23:40:22.919Z,3.07
2023-05-11T23:42:51.090Z,3.53
2023-05-11T23:45:18.994Z,3.43
2023-05-11T23:47:46.908Z,2.80
2023-05-11T23:50:14.964Z,3.43
2023-05-11T23:52:44.084Z,3.30
2023-05-11T23:55:12.335Z,3.77
2023-05-11T23:57:40.097Z,3.33
